Time;durP1;ratioP1;P1;durP2;ratioP2;P2;SDS_P1;SDS_P2;PMS_P1;PMS_P2;Temp;Humidity;BMP_temperature;BMP_pressure;BME280_temperature;BME280_humidity;BME280_pressure;Samples;Min_cycle;Max_cycle;Signal;HPM_P1;HPM_P2
2020/12/04 00:01:02;;;;;;;14.65;10.20;;;3.40;99.90;;;;;;5074619;28;20058;-58
2020/12/04 00:03:28;;;;;;;18.48;10.02;;;3.50;99.90;;;;;;5076001;28;20115;-60
2020/12/04 00:05:54;;;;;;;17.98;10.98;;;3.40;99.90;;;;;;5076077;28;20422;-59
2020/12/04 00:08:19;;;;;;;17.77;11.32;;;3.40;99.90;;;;;;5075369;28;20481;-60
2020/12/04 00:10:45;;;;;;;16.40;11.32;;;3.50;99.90;;;;;;5075865;28;20072;-59
2020/12/04 00:13:10;;;;;;;17.23;11.43;;;3.50;99.90;;;;;;5074856;28;20137;-58
2020/12/04 00:15:36;;;;;;;18.40;11.25;;;3.40;99.90;;;;;;5074178;28;20016;-59
2020/12/04 00:18:02;;;;;;;15.90;10.65;;;3.50;99.90;;;;;;5075191;28;20445;-59
2020/12/04 00:20:27;;;;;;;17.58;11.05;;;3.50;99.90;;;;;;5093047;28;20466;-59
2020/12/04 00:22:54;;;;;;;18.45;11.80;;;3.50;99.90;;;;;;5091903;28;20149;-59
2020/12/04 00:25:20;;;;;;;18.33;11.55;;;3.60;99.90;;;;;;5073721;28;20478;-59
2020/12/04 00:27:46;;;;;;;16.42;10.77;;;3.60;99.90;;;;;;5093796;28;20031;-59
2020/12/04 00:30:12;;;;;;;16.98;10.98;;;3.50;99.90;;;;;;5075704;28;20024;-59
2020/12/04 00:32:37;;;;;;;18.80;11.98;;;3.40;99.90;;;;;;5075458;28;20024;-59
2020/12/04 00:35:03;;;;;;;16.38;10.80;;;3.30;99.90;;;;;;5074421;28;20073;-59
2020/12/04 00:37:29;;;;;;;16.48;10.48;;;3.30;99.90;;;;;;5094307;28;20487;-60
2020/12/04 00:39:54;;;;;;;19.00;11.10;;;3.30;99.90;;;;;;5094150;28;20038;-60
2020/12/04 00:42:20;;;;;;;19.42;11.52;;;3.30;99.90;;;;;;5093196;28;20028;-61
2020/12/04 00:44:45;;;;;;;17.85;12.23;;;3.20;99.90;;;;;;5075469;28;20479;-59
2020/12/04 00:47:11;;;;;;;20.92;12.82;;;3.20;99.90;;;;;;5094231;28;20142;-61
2020/12/04 00:49:37;;;;;;;20.73;11.10;;;3.20;99.90;;;;;;5093818;28;20020;-60
2020/12/04 00:52:02;;;;;;;18.20;12.02;;;3.00;99.90;;;;;;5093078;28;20024;-64
2020/12/04 00:54:28;;;;;;;19.23;12.13;;;3.00;99.90;;;;;;5075552;28;20020;-60
2020/12/04 00:56:54;;;;;;;18.67;11.65;;;2.90;99.90;;;;;;5075713;28;20371;-61
2020/12/04 00:59:19;;;;;;;24.67;13.07;;;2.90;99.90;;;;;;5084422;28;20461;-64
2020/12/04 01:01:45;;;;;;;17.33;11.27;;;4.10;99.90;;;;;;5095030;28;20019;-59
2020/12/04 01:04:11;;;;;;;18.63;11.00;;;4.70;99.90;;;;;;5113203;28;20039;-58
2020/12/04 01:06:37;;;;;;;19.38;12.13;;;3.80;99.90;;;;;;5093881;28;20027;-58
2020/12/04 01:09:10;;;;;;;20.77;11.82;;;3.50;99.90;;;;;;5112425;28;20051;-66
2020/12/04 01:11:35;;;;;;;19.00;11.68;;;3.10;99.90;;;;;;5095592;28;20035;-59
2020/12/04 01:14:01;;;;;;;18.73;12.50;;;3.00;99.90;;;;;;5113256;28;20026;-59
2020/12/04 01:16:27;;;;;;;18.95;12.15;;;2.90;99.90;;;;;;5095310;28;20452;-68
2020/12/04 01:18:53;;;;;;;20.25;12.27;;;2.90;99.90;;;;;;5095360;28;20019;-58
2020/12/04 01:21:18;;;;;;;20.70;13.32;;;2.80;99.90;;;;;;5094193;28;20409;-60
2020/12/04 01:23:44;;;;;;;19.63;12.32;;;2.80;99.90;;;;;;5095099;28;20041;-59
2020/12/04 01:26:10;;;;;;;21.52;12.57;;;2.80;99.90;;;;;;5094579;28;20449;-59
2020/12/04 01:28:36;;;;;;;18.33;12.18;;;3.00;99.90;;;;;;5095212;28;20019;-59
2020/12/04 01:31:01;;;;;;;21.50;12.32;;;2.80;99.90;;;;;;5095637;28;20448;-63
2020/12/04 01:33:27;;;;;;;20.23;13.30;;;3.00;99.90;;;;;;5115264;28;20080;-60
2020/12/04 01:35:53;;;;;;;19.35;11.73;;;2.80;99.90;;;;;;5096447;28;20564;-58
2020/12/04 01:38:19;;;;;;;17.52;12.73;;;2.80;99.90;;;;;;5094418;28;20026;-59
2020/12/04 01:40:44;;;;;;;19.02;11.50;;;2.90;99.90;;;;;;5095359;28;20031;-61
2020/12/04 01:43:10;;;;;;;19.75;12.35;;;2.70;99.90;;;;;;5114022;28;20032;-61
2020/12/04 01:45:36;;;;;;;25.00;13.60;;;2.90;99.90;;;;;;5111173;28;20051;-59
2020/12/04 01:48:05;;;;;;;19.00;11.73;;;2.80;99.90;;;;;;5112939;28;20031;-58
2020/12/04 01:50:31;;;;;;;19.60;11.95;;;2.80;99.90;;;;;;5112238;28;20453;-60
2020/12/04 01:53:00;;;;;;;21.30;12.65;;;2.90;99.90;;;;;;5094715;28;20538;-60
2020/12/04 01:55:26;;;;;;;21.92;12.40;;;2.80;99.90;;;;;;5094543;28;20131;-59
2020/12/04 01:57:53;;;;;;;20.83;11.98;;;2.80;99.90;;;;;;5113314;28;20019;-59
2020/12/04 02:00:19;;;;;;;20.02;11.88;;;2.80;99.90;;;;;;5076619;28;20020;-59
2020/12/04 02:02:47;;;;;;;19.40;11.88;;;2.90;99.90;;;;;;5074984;28;20112;-59
2020/12/04 02:05:12;;;;;;;18.75;10.65;;;2.90;99.90;;;;;;5074019;28;20031;-62
2020/12/04 02:08:00;;;;;;;16.65;9.90;;;2.90;99.90;;;;;;5075321;28;20024;-59
2020/12/04 02:10:33;;;;;;;16.35;10.40;;;3.00;99.90;;;;;;5092940;28;20031;-65
2020/12/04 02:12:59;;;;;;;19.13;12.38;;;2.90;99.90;;;;;;5077364;28;20031;-59
2020/12/04 02:15:25;;;;;;;20.67;13.18;;;2.90;99.90;;;;;;5078443;28;20023;-59
2020/12/04 02:17:56;;;;;;;21.05;11.77;;;2.90;99.90;;;;;;5096262;28;20020;-59
2020/12/04 02:20:22;;;;;;;18.65;12.13;;;2.80;99.90;;;;;;5095822;28;20042;-58
2020/12/04 02:22:47;;;;;;;20.90;12.23;;;2.80;99.90;;;;;;5096672;28;20521;-63
2020/12/04 02:25:13;;;;;;;19.35;12.25;;;2.90;99.90;;;;;;5096314;28;20028;-60
2020/12/04 02:27:49;;;;;;;20.65;12.10;;;2.80;99.90;;;;;;5078964;28;20020;-60
2020/12/04 02:30:30;;;;;;;18.00;11.75;;;2.90;99.90;;;;;;5095890;28;20065;-60
2020/12/04 02:32:56;;;;;;;19.85;11.20;;;2.90;99.90;;;;;;5098906;28;20053;-59
2020/12/04 02:35:22;;;;;;;21.30;12.93;;;2.80;99.90;;;;;;5115986;28;20029;-59
2020/12/04 02:37:47;;;;;;;21.70;14.00;;;2.90;99.90;;;;;;5098532;28;20015;-60
2020/12/04 02:40:13;;;;;;;20.70;13.13;;;2.80;99.90;;;;;;5116912;28;20106;-59
2020/12/04 02:42:42;;;;;;;21.00;12.25;;;2.80;99.90;;;;;;5098875;28;20524;-59
2020/12/04 02:45:09;;;;;;;19.20;12.27;;;2.80;99.90;;;;;;5094714;28;20040;-67
2020/12/04 02:47:34;;;;;;;18.77;11.65;;;2.80;99.90;;;;;;5096432;28;20122;-59
2020/12/04 02:50:00;;;;;;;17.25;11.30;;;2.80;99.90;;;;;;5096130;28;20048;-58
2020/12/04 02:52:26;;;;;;;18.25;12.20;;;2.90;99.90;;;;;;5095186;28;20028;-59
2020/12/04 02:54:51;;;;;;;22.63;13.15;;;3.00;99.90;;;;;;5095367;28;20025;-59
2020/12/04 02:57:20;;;;;;;17.20;11.07;;;3.10;99.90;;;;;;5094443;28;20530;-59
2020/12/04 02:59:46;;;;;;;21.63;12.25;;;3.10;99.90;;;;;;5094868;28;20024;-60
2020/12/04 03:02:12;;;;;;;19.42;11.63;;;3.10;99.90;;;;;;5093977;28;20043;-58
2020/12/04 03:04:38;;;;;;;19.05;11.13;;;3.10;99.90;;;;;;5095746;28;20024;-59
2020/12/04 03:07:04;;;;;;;18.52;11.20;;;3.10;99.90;;;;;;5094896;28;20493;-59
2020/12/04 03:09:30;;;;;;;19.33;12.00;;;3.00;99.90;;;;;;5094534;28;20477;-59
2020/12/04 03:11:57;;;;;;;19.67;12.10;;;3.10;99.90;;;;;;5096757;28;20174;-59
2020/12/04 03:14:23;;;;;;;19.77;13.07;;;3.10;99.90;;;;;;5094976;28;20042;-61
2020/12/04 03:16:49;;;;;;;18.50;12.25;;;3.00;99.90;;;;;;5093629;28;20020;-60
2020/12/04 03:19:15;;;;;;;20.83;12.68;;;3.10;99.90;;;;;;5094570;28;20103;-59
2020/12/04 03:21:41;;;;;;;18.50;12.00;;;3.20;99.90;;;;;;5094349;28;20459;-59
2020/12/04 03:24:07;;;;;;;18.38;10.82;;;3.20;99.90;;;;;;5090940;28;20046;-58
2020/12/04 03:26:32;;;;;;;18.33;12.32;;;3.20;99.90;;;;;;5092893;28;20056;-58
2020/12/04 03:28:58;;;;;;;16.90;10.75;;;3.10;99.90;;;;;;5096274;28;20069;-59
2020/12/04 03:31:24;;;;;;;20.35;11.52;;;3.10;99.90;;;;;;5094100;28;20032;-60
2020/12/04 03:33:49;;;;;;;18.75;12.25;;;3.10;99.90;;;;;;5095875;28;20028;-59
2020/12/04 03:36:15;;;;;;;20.02;12.77;;;3.10;99.90;;;;;;5094128;28;20031;-59
2020/12/04 03:38:41;;;;;;;19.25;11.85;;;3.10;99.90;;;;;;5095230;28;20028;-61
2020/12/04 03:41:06;;;;;;;18.75;12.35;;;3.10;99.90;;;;;;5098043;28;20031;-60
2020/12/04 03:43:32;;;;;;;21.52;13.38;;;3.10;99.90;;;;;;5093882;28;20362;-60
2020/12/04 03:45:58;;;;;;;18.77;11.68;;;3.10;99.90;;;;;;5099104;28;20393;-59
2020/12/04 03:48:24;;;;;;;16.50;11.23;;;3.10;99.90;;;;;;5103006;28;20027;-59
2020/12/04 03:50:50;;;;;;;22.60;12.35;;;3.10;99.90;;;;;;5103786;28;20047;-59
2020/12/04 03:53:15;;;;;;;19.88;12.25;;;3.20;99.90;;;;;;5098776;28;20091;-59
2020/12/04 03:55:41;;;;;;;18.65;12.20;;;3.40;99.90;;;;;;5117412;28;20364;-59
2020/12/04 03:58:06;;;;;;;19.08;12.07;;;3.30;99.90;;;;;;5116229;28;20030;-60
2020/12/04 04:00:32;;;;;;;20.35;11.85;;;3.30;99.90;;;;;;5073519;28;20024;-59
2020/12/04 04:02:58;;;;;;;23.27;13.07;;;3.30;99.90;;;;;;5073965;28;20020;-60
2020/12/04 04:05:23;;;;;;;20.50;12.02;;;3.40;99.90;;;;;;5073338;28;20028;-58
2020/12/04 04:07:51;;;;;;;17.33;11.48;;;3.30;99.90;;;;;;5091811;28;20099;-59
2020/12/04 04:10:17;;;;;;;19.00;11.30;;;3.30;99.90;;;;;;5072801;28;20027;-60
2020/12/04 04:12:43;;;;;;;18.85;11.68;;;3.40;99.90;;;;;;5073554;28;20032;-60
2020/12/04 04:15:08;;;;;;;20.55;11.10;;;3.40;99.90;;;;;;5073653;28;20111;-59
2020/12/04 04:17:34;;;;;;;19.15;12.35;;;3.40;99.90;;;;;;5070939;28;20111;-59
2020/12/04 04:19:59;;;;;;;20.50;11.38;;;3.40;99.90;;;;;;5091440;28;20066;-59
2020/12/04 04:22:25;;;;;;;19.73;11.85;;;3.40;99.90;;;;;;5072375;28;20118;-59
2020/12/04 04:24:51;;;;;;;19.85;11.52;;;3.40;99.90;;;;;;5073236;28;20028;-59
2020/12/04 04:27:16;;;;;;;17.65;10.65;;;3.40;99.90;;;;;;5072785;28;20027;-58
2020/12/04 04:29:42;;;;;;;17.75;10.82;;;3.40;99.90;;;;;;5073544;28;20110;-59
2020/12/04 04:32:07;;;;;;;15.77;10.85;;;3.40;99.90;;;;;;5073450;28;20016;-59
2020/12/04 04:34:33;;;;;;;17.33;9.40;;;3.60;99.90;;;;;;5090668;28;20104;-59
2020/12/04 04:36:59;;;;;;;16.48;9.85;;;3.50;99.90;;;;;;5072928;28;20020;-59
2020/12/04 04:39:24;;;;;;;21.88;11.57;;;3.60;99.90;;;;;;5072531;28;20107;-58
2020/12/04 04:41:57;;;;;;;16.10;9.43;;;3.60;99.90;;;;;;5091120;28;20460;-58
2020/12/04 04:44:23;;;;;;;15.57;9.75;;;3.60;99.90;;;;;;5073836;28;20153;-58
2020/12/04 04:47:16;;;;;;;19.05;9.77;;;3.60;99.90;;;;;;5094218;28;20020;-63
2020/12/04 04:49:47;;;;;;;14.23;8.63;;;3.60;99.90;;;;;;5090031;28;20089;-59
2020/12/04 04:52:14;;;;;;;11.57;7.65;;;3.70;99.90;;;;;;5075576;28;20024;-59
2020/12/04 04:54:44;;;;;;;11.93;7.55;;;3.80;99.90;;;;;;5075835;28;20445;-61
2020/12/04 04:57:11;;;;;;;11.10;6.60;;;3.90;99.90;;;;;;5075895;28;20373;-62
2020/12/04 04:59:38;;;;;;;12.90;7.55;;;3.90;99.90;;;;;;5079317;28;20019;-61
2020/12/04 05:02:04;;;;;;;10.38;7.00;;;3.90;99.90;;;;;;5096286;28;20027;-58
2020/12/04 05:04:51;;;;;;;13.43;7.30;;;4.00;99.90;;;;;;5095886;28;20356;-59
2020/12/04 05:07:28;;;;;;;10.88;6.40;;;4.00;99.90;;;;;;5095340;28;20085;-68
2020/12/04 05:10:15;;;;;;;10.23;6.55;;;4.10;99.90;;;;;;5092634;28;20118;-60
2020/12/04 05:12:42;;;;;;;11.80;6.40;;;4.10;99.90;;;;;;5095747;28;20112;-59
2020/12/04 05:15:22;;;;;;;13.75;6.00;;;4.20;99.90;;;;;;5094128;28;20020;-60
2020/12/04 05:18:08;;;;;;;9.10;5.88;;;4.20;99.90;;;;;;5114159;28;20101;-64
2020/12/04 05:20:35;;;;;;;39.70;15.55;;;4.30;99.90;;;;;;5095423;28;20028;-64
2020/12/04 05:23:01;;;;;;;18.20;10.60;;;6.40;99.90;;;;;;5093990;28;20149;-63
2020/12/04 05:25:33;;;;;;;9.55;5.38;;;6.80;99.90;;;;;;5100868;28;20039;-57
2020/12/04 05:28:10;;;;;;;6.88;4.78;;;5.80;99.90;;;;;;5073217;28;20024;-59
2020/12/04 05:30:36;;;;;;;8.77;5.35;;;5.10;99.90;;;;;;5073086;28;20115;-59
2020/12/04 05:33:04;;;;;;;9.82;5.72;;;4.90;99.90;;;;;;5072492;28;20166;-58
2020/12/04 05:35:30;;;;;;;9.00;5.13;;;4.70;99.90;;;;;;5089444;28;20373;-59
2020/12/04 05:38:11;;;;;;;13.40;6.40;;;4.70;99.90;;;;;;5071345;28;20024;-60
2020/12/04 05:40:39;;;;;;;11.85;7.22;;;4.60;99.90;;;;;;5089308;28;20020;-60
2020/12/04 05:43:05;;;;;;;11.30;7.10;;;4.60;99.90;;;;;;5090599;28;20044;-58
2020/12/04 05:45:31;;;;;;;10.75;7.13;;;4.50;99.90;;;;;;5089503;28;20127;-59
2020/12/04 05:47:57;;;;;;;12.55;7.78;;;4.50;99.90;;;;;;5074271;28;20028;-59
2020/12/04 05:50:23;;;;;;;13.43;6.88;;;4.50;99.90;;;;;;5075723;28;20028;-60
2020/12/04 05:52:49;;;;;;;15.93;7.68;;;4.50;99.90;;;;;;5094249;28;20039;-58
2020/12/04 05:55:16;;;;;;;10.77;7.38;;;4.50;99.90;;;;;;5094693;28;20101;-58
2020/12/04 05:57:51;;;;;;;12.95;7.50;;;4.40;99.90;;;;;;5094199;28;20081;-60
2020/12/04 06:00:18;;;;;;;11.32;7.38;;;4.40;99.90;;;;;;5094381;28;20024;-60
2020/12/04 06:02:43;;;;;;;13.88;7.05;;;4.60;99.90;;;;;;5076642;28;20089;-60
2020/12/04 06:05:10;;;;;;;17.13;6.95;;;4.50;99.90;;;;;;5076346;28;20024;-61
2020/12/04 06:07:38;;;;;;;12.07;6.40;;;4.50;99.90;;;;;;5093822;28;20442;-61
2020/12/04 06:10:05;;;;;;;13.13;7.65;;;4.60;99.90;;;;;;5094115;28;20077;-60
2020/12/04 06:12:31;;;;;;;12.93;7.00;;;4.60;99.90;;;;;;5074925;28;20051;-60
2020/12/04 06:15:26;;;;;;;12.40;6.75;;;4.50;99.90;;;;;;5075953;28;20024;-59
2020/12/04 06:18:00;;;;;;;12.50;7.90;;;4.50;99.90;;;;;;5075826;28;20122;-60
2020/12/04 06:20:26;;;;;;;8.35;5.82;;;4.60;99.90;;;;;;5074952;28;20028;-59
2020/12/04 06:23:11;;;;;;;11.50;6.70;;;4.60;99.90;;;;;;5075591;28;20032;-59
2020/12/04 06:25:53;;;;;;;9.43;5.97;;;4.60;99.90;;;;;;5074615;28;20032;-66
2020/12/04 06:28:20;;;;;;;12.53;6.50;;;4.70;99.90;;;;;;5075659;28;20166;-60
2020/12/04 06:31:04;;;;;;;10.13;6.03;;;4.80;99.90;;;;;;5075777;28;20391;-59
2020/12/04 06:33:37;;;;;;;5.75;4.07;;;4.80;99.90;;;;;;5074862;28;20047;-58
2020/12/04 06:36:04;;;;;;;10.07;3.85;;;4.90;99.90;;;;;;5095856;28;20473;-58
2020/12/04 06:38:36;;;;;;;3.25;2.40;;;5.00;99.90;;;;;;5096059;28;20457;-59
2020/12/04 06:41:19;;;;;;;;;;;5.20;99.90;;;;;;5097714;28;20129;-63
2020/12/04 06:43:48;;;;;;;3.42;2.75;;;5.20;99.90;;;;;;5078882;28;19919;-62
2020/12/04 06:46:40;;;;;;;3.50;2.45;;;5.20;99.90;;;;;;5097480;28;20032;-64
2020/12/04 06:49:12;;;;;;;6.40;2.60;;;5.20;99.90;;;;;;5074983;28;20028;-66
2020/12/04 06:51:40;;;;;;;6.30;3.05;;;5.30;99.90;;;;;;5078777;28;20128;-58
2020/12/04 06:54:09;;;;;;;3.47;2.58;;;5.30;99.90;;;;;;5098182;28;20055;-62
2020/12/04 06:56:35;;;;;;;3.67;2.03;;;5.30;99.90;;;;;;5095763;28;20114;-59
2020/12/04 06:59:01;;;;;;;4.35;2.47;;;5.30;99.90;;;;;;5076650;28;20027;-62
2020/12/04 07:01:27;;;;;;;6.47;2.50;;;5.30;99.90;;;;;;5078118;28;20031;-59
2020/12/04 07:03:56;;;;;;;5.57;3.15;;;5.30;99.90;;;;;;5079536;28;20032;-63
2020/12/04 07:06:25;;;;;;;4.18;2.70;;;5.30;99.90;;;;;;5079608;28;20032;-66
2020/12/04 07:09:02;;;;;;;3.88;2.20;;;5.30;99.90;;;;;;5079144;28;20035;-60
2020/12/04 07:11:29;;;;;;;4.03;2.35;;;5.30;99.90;;;;;;5078667;28;20028;-64
2020/12/04 07:13:55;;;;;;;3.05;2.17;;;5.30;99.90;;;;;;5096756;28;20031;-62
2020/12/04 07:16:21;;;;;;;4.65;2.22;;;5.30;99.90;;;;;;5097291;28;20024;-59
2020/12/04 07:18:53;;;;;;;3.33;2.15;;;5.30;99.90;;;;;;5096125;28;20054;-64
2020/12/04 07:21:20;;;;;;;5.18;1.90;;;5.40;99.90;;;;;;5096643;28;20377;-63
2020/12/04 07:23:46;;;;;;;4.70;2.47;;;5.30;99.90;;;;;;5078238;28;20032;-60
2020/12/04 07:26:18;;;;;;;4.15;2.28;;;5.30;99.90;;;;;;5096367;28;20024;-61
2020/12/04 07:28:45;;;;;;;4.75;1.95;;;5.30;99.90;;;;;;5077623;28;20032;-61
2020/12/04 07:31:19;;;;;;;4.53;1.88;;;5.30;99.90;;;;;;5077958;28;20119;-61
2020/12/04 07:33:56;;;;;;;4.15;2.40;;;5.30;99.90;;;;;;5076994;28;20028;-60
2020/12/04 07:36:24;;;;;;;4.22;1.67;;;5.30;99.90;;;;;;5077806;28;20020;-59
2020/12/04 07:39:01;;;;;;;4.78;2.38;;;5.30;99.90;;;;;;5077149;28;20028;-60
2020/12/04 07:41:39;;;;;;;4.20;2.03;;;5.30;99.90;;;;;;5095260;28;20051;-59
2020/12/04 07:44:07;;;;;;;3.47;1.77;;;5.30;99.90;;;;;;5096174;28;20078;-59
2020/12/04 07:46:35;;;;;;;4.45;1.92;;;5.30;99.90;;;;;;5077096;28;20056;-58
2020/12/04 07:49:12;;;;;;;8.00;3.30;;;5.40;99.90;;;;;;5076068;28;20023;-61
2020/12/04 07:51:40;;;;;;;3.22;2.10;;;5.30;99.90;;;;;;5095066;28;20085;-59
2020/12/04 07:54:22;;;;;;;5.30;1.80;;;5.30;99.90;;;;;;5078173;28;20035;-64
2020/12/04 07:56:54;;;;;;;4.57;2.30;;;5.30;99.90;;;;;;5088367;28;20519;-63
2020/12/04 07:59:32;;;;;;;3.28;2.10;;;5.30;99.90;;;;;;5094298;28;20107;-58
2020/12/04 08:02:00;;;;;;;4.15;2.40;;;5.30;99.90;;;;;;5101480;28;20031;-61
2020/12/04 08:04:28;;;;;;;2.50;1.80;;;5.40;99.90;;;;;;5101292;28;20496;-63
2020/12/04 08:07:05;;;;;;;4.32;1.98;;;5.50;99.90;;;;;;5103274;28;20112;-59
2020/12/04 08:09:38;;;;;;;5.03;2.30;;;5.40;99.90;;;;;;5083236;28;20034;-59
2020/12/04 08:12:09;;;;;;;6.18;2.72;;;5.50;99.90;;;;;;5082564;28;20031;-62
2020/12/04 08:14:37;;;;;;;4.00;2.47;;;5.40;99.90;;;;;;5095692;28;20528;-59
2020/12/04 08:17:05;;;;;;;2.95;2.15;;;5.40;99.90;;;;;;5115645;28;20036;-59
2020/12/04 08:19:33;;;;;;;2.90;2.13;;;5.40;99.90;;;;;;5093858;28;20062;-60
2020/12/04 08:22:08;;;;;;;3.70;1.83;;;5.40;99.90;;;;;;5111340;28;20035;-60
2020/12/04 08:24:35;;;;;;;5.55;2.35;;;5.40;99.90;;;;;;5083709;28;20114;-61
2020/12/04 08:27:06;;;;;;;7.15;2.20;;;5.50;99.90;;;;;;5101240;28;20495;-60
2020/12/04 08:29:36;;;;;;;6.18;2.33;;;5.50;99.90;;;;;;5082673;28;20406;-59
2020/12/04 08:32:03;;;;;;;5.70;2.78;;;7.00;99.90;;;;;;5083297;28;20137;-63
2020/12/04 08:34:29;;;;;;;2.45;2.17;;;6.00;99.90;;;;;;5076481;28;20028;-60
2020/12/04 08:37:03;;;;;;;6.22;3.92;;;5.80;99.90;;;;;;5072149;28;20028;-60
2020/12/04 08:39:39;;;;;;;7.18;3.45;;;5.50;99.90;;;;;;5067570;28;20135;-60
2020/12/04 08:42:12;;;;;;;4.75;3.70;;;5.50;99.90;;;;;;5070655;28;20416;-59
2020/12/04 08:44:38;;;;;;;4.90;3.20;;;5.40;99.90;;;;;;5070582;28;20564;-61
2020/12/04 08:47:04;;;;;;;6.47;3.60;;;5.40;99.90;;;;;;5089898;28;20024;-60
2020/12/04 08:49:30;;;;;;;8.25;4.07;;;5.40;99.90;;;;;;5071256;28;20501;-61
2020/12/04 08:51:56;;;;;;;4.82;2.80;;;5.40;99.90;;;;;;5092523;28;20193;-59
2020/12/04 08:54:21;;;;;;;5.70;3.20;;;5.40;99.90;;;;;;5072136;28;20031;-59
2020/12/04 08:56:55;;;;;;;6.88;3.85;;;5.40;99.90;;;;;;5072272;28;20028;-60
2020/12/04 08:59:23;;;;;;;3.97;2.80;;;5.50;99.90;;;;;;5074848;28;20031;-61
2020/12/04 09:01:50;;;;;;;6.63;3.22;;;5.50;99.90;;;;;;5071975;28;20035;-59
2020/12/04 09:04:16;;;;;;;6.60;3.42;;;5.50;99.90;;;;;;5090457;28;20040;-60
2020/12/04 09:06:42;;;;;;;10.05;3.47;;;5.60;99.90;;;;;;5070866;28;20028;-59
2020/12/04 09:09:08;;;;;;;7.72;3.35;;;5.60;99.90;;;;;;5071185;28;20024;-60
2020/12/04 09:11:34;;;;;;;9.48;4.65;;;5.50;99.90;;;;;;5071358;28;20040;-59
2020/12/04 09:13:59;;;;;;;4.97;3.25;;;5.60;99.90;;;;;;5072961;28;20035;-61
2020/12/04 09:16:25;;;;;;;5.80;3.70;;;5.70;99.90;;;;;;5089713;28;20067;-66
2020/12/04 09:18:51;;;;;;;6.35;3.05;;;5.70;99.90;;;;;;5070661;28;20060;-62
2020/12/04 09:21:17;;;;;;;7.10;3.90;;;5.80;99.90;;;;;;5081663;28;20028;-59
2020/12/04 09:23:42;;;;;;;4.72;3.13;;;5.80;99.90;;;;;;5094719;28;20115;-61
2020/12/04 09:26:08;;;;;;;6.07;4.05;;;5.80;99.90;;;;;;5094458;28;20030;-60
2020/12/04 09:28:34;;;;;;;3.88;2.75;;;5.80;99.90;;;;;;5112882;28;20028;-61
2020/12/04 09:31:00;;;;;;;5.05;3.35;;;5.80;99.90;;;;;;5095667;28;20031;-60
2020/12/04 09:33:25;;;;;;;6.40;3.92;;;5.80;99.90;;;;;;5114775;28;20368;-66
2020/12/04 09:35:51;;;;;;;5.93;3.72;;;5.80;99.90;;;;;;5114377;28;20488;-61
2020/12/04 09:38:16;;;;;;;3.95;3.00;;;5.90;99.90;;;;;;5114903;28;20038;-60
2020/12/04 09:40:42;;;;;;;5.38;4.07;;;5.80;99.90;;;;;;5113505;28;20024;-61
2020/12/04 09:43:08;;;;;;;4.47;3.58;;;6.00;99.90;;;;;;5095544;28;20517;-61
2020/12/04 09:45:34;;;;;;;5.03;3.55;;;6.10;99.90;;;;;;5114103;28;20146;-60
2020/12/04 09:48:00;;;;;;;7.00;3.53;;;6.10;99.90;;;;;;5096572;28;20030;-63
2020/12/04 09:50:26;;;;;;;7.78;3.47;;;6.20;99.90;;;;;;5114199;28;20041;-65
2020/12/04 09:52:52;;;;;;;6.32;3.95;;;6.10;99.90;;;;;;5113945;28;20033;-59
2020/12/04 09:55:18;;;;;;;8.55;3.92;;;6.20;99.90;;;;;;5095832;28;20020;-60
2020/12/04 09:57:43;;;;;;;7.07;3.80;;;6.40;99.90;;;;;;5112738;28;20027;-61
2020/12/04 10:00:11;;;;;;;5.38;3.92;;;6.30;99.90;;;;;;5114089;28;20052;-60
2020/12/04 10:02:37;;;;;;;12.52;4.70;;;6.50;99.90;;;;;;5075147;28;20028;-60
2020/12/04 10:05:03;;;;;;;6.90;4.93;;;6.40;99.90;;;;;;5074879;28;20396;-59
2020/12/04 10:07:29;;;;;;;11.30;6.07;;;6.70;99.90;;;;;;5074446;28;20494;-65
2020/12/04 10:09:55;;;;;;;12.80;6.03;;;6.70;99.90;;;;;;5074001;28;20125;-60
2020/12/04 10:12:20;;;;;;;10.48;6.32;;;6.90;99.90;;;;;;5073899;28;20031;-60
2020/12/04 10:14:46;;;;;;;10.43;6.30;;;7.00;99.90;;;;;;5092133;28;20111;-59
2020/12/04 10:17:12;;;;;;;14.35;6.50;;;7.10;99.90;;;;;;5074743;28;20490;-61
2020/12/04 10:19:39;;;;;;;9.48;5.82;;;7.20;99.90;;;;;;5076452;28;20486;-60
2020/12/04 10:22:05;;;;;;;11.60;6.28;;;7.80;99.90;;;;;;5094618;28;20036;-61
2020/12/04 10:24:31;;;;;;;12.43;5.70;;;8.80;99.90;;;;;;5094935;28;20046;-67
2020/12/04 10:26:57;;;;;;;9.30;6.25;;;8.90;99.90;;;;;;5094479;28;20023;-58
2020/12/04 10:29:23;;;;;;;11.10;6.35;;;9.50;99.90;;;;;;5094960;28;20472;-59
2020/12/04 10:31:49;;;;;;;9.77;5.82;;;8.70;99.90;;;;;;5104557;28;20035;-59
2020/12/04 10:34:16;;;;;;;12.05;6.07;;;8.60;99.90;;;;;;5085222;28;20369;-58
2020/12/04 10:36:43;;;;;;;8.88;5.88;;;8.20;99.90;;;;;;5102074;28;20103;-58
2020/12/04 10:39:10;;;;;;;9.82;6.43;;;8.30;99.90;;;;;;5082965;28;20020;-58
2020/12/04 10:41:38;;;;;;;7.78;5.63;;;8.00;99.90;;;;;;5090505;28;20065;-58
2020/12/04 10:44:06;;;;;;;8.98;6.35;;;7.90;99.90;;;;;;5077110;28;20404;-58
2020/12/04 10:46:32;;;;;;;9.85;7.00;;;7.40;99.90;;;;;;5087161;28;20024;-66
2020/12/04 10:48:59;;;;;;;11.13;7.13;;;7.40;99.90;;;;;;5105191;28;20027;-59
2020/12/04 10:51:25;;;;;;;9.40;6.43;;;7.20;99.90;;;;;;5101123;28;20465;-62
2020/12/04 10:53:52;;;;;;;9.77;6.45;;;7.10;99.90;;;;;;5112507;28;20351;-59
2020/12/04 10:56:21;;;;;;;7.90;5.90;;;7.00;99.90;;;;;;5094722;28;20070;-59
2020/12/04 10:58:48;;;;;;;12.50;5.85;;;7.20;99.90;;;;;;5092301;28;20032;-59
2020/12/04 11:06:24;;;;;;;12.68;6.40;;;6.90;99.90;;;;;;5112875;28;20135;-59
2020/12/04 11:08:49;;;;;;;10.93;6.22;;;6.70;99.90;;;;;;5093454;28;20644;-58
2020/12/04 11:11:16;;;;;;;8.52;5.85;;;6.70;99.90;;;;;;5094068;28;20119;-61
2020/12/04 11:13:42;;;;;;;8.80;6.13;;;6.70;99.90;;;;;;5093562;28;20492;-59
2020/12/04 11:16:08;;;;;;;8.88;5.63;;;6.70;99.90;;;;;;5094529;28;20140;-60
2020/12/04 11:18:34;;;;;;;10.32;6.47;;;6.70;99.90;;;;;;5112550;28;20477;-60
2020/12/04 11:21:00;;;;;;;11.38;6.32;;;6.60;99.90;;;;;;5094376;28;20023;-59
2020/12/04 11:23:26;;;;;;;10.80;6.38;;;6.70;99.90;;;;;;5094039;28;20490;-59
2020/12/04 11:25:51;;;;;;;8.90;6.15;;;6.70;99.90;;;;;;5111606;28;20485;-65
2020/12/04 11:28:17;;;;;;;9.93;6.13;;;6.60;99.90;;;;;;5111806;28;20019;-59
2020/12/04 11:30:43;;;;;;;8.00;5.70;;;6.60;99.90;;;;;;5093976;28;20163;-59
2020/12/04 11:33:09;;;;;;;12.68;6.22;;;6.60;99.90;;;;;;5093944;28;20514;-59
2020/12/04 11:35:34;;;;;;;11.45;5.78;;;6.60;99.90;;;;;;5093602;28;20027;-60
2020/12/04 11:38:01;;;;;;;14.10;8.85;;;6.70;99.90;;;;;;5094360;28;20059;-60
2020/12/04 11:40:26;;;;;;;13.32;7.28;;;6.70;99.90;;;;;;5093609;28;20149;-60
2020/12/04 11:42:52;;;;;;;9.13;6.18;;;6.60;99.90;;;;;;5092830;28;20130;-60
2020/12/04 11:45:18;;;;;;;8.43;6.30;;;6.70;99.90;;;;;;5092991;28;20043;-58
2020/12/04 11:47:45;;;;;;;9.57;5.90;;;6.80;99.90;;;;;;5111038;28;20032;-59
2020/12/04 11:50:15;;;;;;;12.73;6.15;;;6.80;99.90;;;;;;5093546;28;20024;-59
2020/12/04 11:52:42;;;;;;;11.90;8.88;;;6.80;99.90;;;;;;5072944;28;20032;-58
2020/12/04 11:55:09;;;;;;;8.30;5.72;;;6.80;99.90;;;;;;5073204;28;20039;-59
2020/12/04 11:57:35;;;;;;;11.25;7.32;;;6.80;99.90;;;;;;5072328;28;20046;-61
2020/12/04 12:00:03;;;;;;;8.60;5.80;;;6.80;99.90;;;;;;5091481;28;20101;-59
2020/12/04 12:02:30;;;;;;;11.48;6.90;;;6.70;99.90;;;;;;5091485;28;20028;-59
2020/12/04 12:04:55;;;;;;;11.27;7.30;;;6.80;99.90;;;;;;5072566;28;20024;-58
2020/12/04 12:07:21;;;;;;;14.20;8.35;;;6.90;99.90;;;;;;5091414;28;20432;-60
2020/12/04 12:09:47;;;;;;;12.45;8.13;;;6.80;99.90;;;;;;5072042;28;20043;-58
2020/12/04 12:12:17;;;;;;;14.88;9.80;;;6.60;99.90;;;;;;5072810;28;20028;-59
2020/12/04 12:14:44;;;;;;;10.23;7.00;;;6.70;99.90;;;;;;5072082;28;20020;-59
2020/12/04 12:17:14;;;;;;;13.75;9.38;;;6.50;99.90;;;;;;5090141;28;20100;-58
2020/12/04 12:19:40;;;;;;;11.38;7.85;;;6.70;99.90;;;;;;5072194;28;20114;-60
2020/12/04 12:22:10;;;;;;;18.42;11.02;;;6.80;99.90;;;;;;5068224;28;20436;-59
2020/12/04 12:24:41;;;;;;;12.88;7.50;;;6.80;99.90;;;;;;5067519;28;20049;-61
2020/12/04 12:27:07;;;;;;;15.30;9.30;;;6.90;99.90;;;;;;5068018;28;20119;-59
2020/12/04 12:29:34;;;;;;;17.52;10.80;;;6.80;99.90;;;;;;5068452;28;20032;-59
2020/12/04 12:32:00;;;;;;;13.52;8.57;;;6.70;99.90;;;;;;5068252;28;20037;-58
2020/12/04 12:35:00;;;;;;;16.00;9.00;;;6.60;99.90;;;;;;5067949;28;20033;-59
2020/12/04 12:37:13;;;;;;;15.77;9.93;;;6.60;99.90;;;;;;5068189;28;20041;-59
2020/12/04 12:39:39;;;;;;;14.73;9.02;;;6.50;99.90;;;;;;5067663;28;20104;-60
2020/12/04 12:42:09;;;;;;;24.00;10.13;;;6.40;99.90;;;;;;5051062;28;20075;-60
2020/12/04 12:44:38;;;;;;;13.57;10.13;;;6.40;99.90;;;;;;5067721;28;20060;-64
2020/12/04 12:47:04;;;;;;;16.35;9.85;;;6.50;99.90;;;;;;5068372;28;20103;-60
2020/12/04 12:49:31;;;;;;;19.60;10.90;;;6.40;99.90;;;;;;5068638;28;20036;-60
2020/12/04 12:51:57;;;;;;;19.15;11.73;;;6.30;99.90;;;;;;5068177;28;20037;-60
2020/12/04 12:54:27;;;;;;;16.50;10.20;;;6.30;99.90;;;;;;5072409;28;20084;-60
2020/12/04 12:56:53;;;;;;;17.05;9.63;;;6.30;99.90;;;;;;5071716;28;20081;-60